Historyczne dane pomiarowe

Dodano dane terminowe – wersja testowa.

Dane z okresu 1951-2019

Wersja bazy: 1.34 [2019-03-16, lista zmian], aktualizacja planowana na 2019-04-15

Dane meteo z obszaru Polski uzyskane na podstawie danych udostępnionych przez Instytut Meteorologii i Gospodarki Wodnej – Państwowy Instytut Badawczy.

 

Wybierz Datę:    

       

TemperaturaWilgotnośćZachmurzenieWiatrCiśnienieWidzialnośćZjawiska
 Data    tng td wb rh cc ccl cl cm ch dir g1 g2 mslp ppp      
1999-06-27 00:00:00 14.9--- 11.8 13.182wxwxwxwx2wx--1014.6 990.2 0.0---wx
1999-06-27 01:00:00 15.2--- 12.3 13.583wxwxwxwx2wx--1014.4 990.0----wx
1999-06-27 02:00:00 13.7--- 11.1 12.284wxwxwxwx2wx--1014.2 989.7----wx
1999-06-27 03:00:00 12.5--- 10.7 11.589wxwxwxwx2wx--1014.2 989.6----wx
1999-06-27 04:00:00 14.1--- 12.4 13.189wxwxwxwx2wx--1014.1 989.6----wx
1999-06-27 05:00:00 15.4--- 12.9 13.985wxwxwx2wx--1014.0 989.6----wx
1999-06-27 06:00:00 17.6--- 13.8 15.378wxwxwx1wx--1014.0 989.8 0.0---wx
1999-06-27 07:00:00 19.8--- 16.4 17.681wxwxwx4wx--1013.6 989.6----wx
1999-06-27 08:00:00 22.2--- 13.4 16.858wxwxwx3wx--1013.4 989.6----wx
1999-06-27 09:00:00 22.2--- 13.0 16.656wxwxwx5wx--1013.5 989.7----wx
1999-06-27 10:00:00 23.4--- 11.8 16.448wxwxwx3wx--1013.4 989.7----wx
1999-06-27 11:00:00 24.2--- 12.4 17.048wxwxwxwx4wx--1013.0 989.3----wx
1999-06-27 12:00:00 25.2--- 14.1 18.250wxwxwxwx4wx--1012.6 989.0 0.0---wx
1999-06-27 13:00:00 25.2--- 14.1 18.250wxwxwxwx3wx--1012.4 988.8----wx
1999-06-27 14:00:00 24.6--- 14.8 18.455wxwxwxwx2wx--1012.3 988.7----wx
1999-06-27 15:00:00 24.2--- 14.3 18.054wxwxwxwx4wx--1012.1 988.5----wx
1999-06-27 16:00:00 23.2--- 16.1 18.664wxwxwxwx2wx--1012.0 988.3----wx
1999-06-27 17:00:00 22.8--- 15.2 18.062wxwxwx3wx--1012.0 988.3----wx
1999-06-27 18:00:00 21.7--- 16.1 18.170wxwxwx2wx--1012.2 988.4 0.0---wx
1999-06-27 19:00:00 20.0--- 14.2 16.469wxwxwxwx5wx--1012.6 988.6----wx
1999-06-27 20:00:00 18.2--- 16.1 16.988wxwxwxwx2wx--1012.3 988.2----wx
1999-06-27 21:00:00 17.6--- 15.5 16.388wxwxwxwx1wx--1012.9 988.7----wxw1
1999-06-27 22:00:00 17.2--- 15.6 16.290wxwxwx1wx--1012.9 988.7----wx
1999-06-27 23:00:00 16.8--- 15.2 15.890wxwxwx1wx--1012.9 988.7----wx

 

Źródłem pochodzenia danych jest Instytut Meteorologii i Gospodarki Wodnej – Państwowy Instytut Badawczy. Dane Instytutu Meteorologii i Gospodarki Wodnej – Państwowego Instytutu Badawczego zostały przetworzone.

Dane źródłowe można odnaleźć na stronie https://dane.imgw.pl